Time;durP1;ratioP1;P1;durP2;ratioP2;P2;SDS_P1;SDS_P2;PMS_P1;PMS_P2;Temp;Humidity;BMP_temperature;BMP_pressure;BME280_temperature;BME280_humidity;BME280_pressure;Samples;Min_cycle;Max_cycle;Signal;HPM_P1;HPM_P2
2023/08/23 04:01:40;;;;;;;0.60;0.10;;;22.10;66.60;;;;;;5308703;23;20493;-70
2023/08/23 04:04:08;;;;;;;0.60;0.10;;;22.10;80.20;;;;;;4895388;29;20449;-70
2023/08/23 04:06:36;;;;;;;0.60;0.20;;;22.00;83.10;;;;;;4895752;29;20523;-71
2023/08/23 04:09:04;;;;;;;0.60;0.20;;;21.90;85.70;;;;;;4898478;29;20445;-71
2023/08/23 04:11:32;;;;;;;0.60;0.10;;;21.80;75.30;;;;;;4899661;29;20511;-72
2023/08/23 04:13:59;;;;;;;0.60;0.20;;;21.80;87.30;;;;;;4899787;29;20445;-71
2023/08/23 04:16:27;;;;;;;0.70;0.40;;;;;;;;;;4943750;23;20511;-67
2023/08/23 04:18:57;;;;;;;0.60;0.10;;;21.80;78.30;;;;;;4899051;29;20535;-67
2023/08/23 04:21:26;;;;;;;0.70;0.37;;;;;;;;;;4898954;29;20451;-67
2023/08/23 04:23:53;;;;;;;0.80;0.30;;;21.70;77.80;;;;;;4899549;29;20446;-67
2023/08/23 04:26:21;;;;;;;0.60;0.10;;;21.70;80.50;;;;;;4899640;29;20489;-67
2023/08/23 04:28:49;;;;;;;0.70;0.27;;;;;;;;;;4899821;29;20471;-68
2023/08/23 04:31:17;;;;;;;0.60;0.10;;;;;;;;;;4899037;29;20549;-68
2023/08/23 04:33:48;;;;;;;1.00;0.63;;;21.70;82.50;;;;;;4897762;29;20461;-68
2023/08/23 04:36:18;;;;;;;1.43;1.07;;;21.70;84.40;;;;;;4897943;29;20469;-68
2023/08/23 04:38:45;;;;;;;0.60;0.10;;;21.70;85.40;;;;;;4898982;29;20449;-68
2023/08/23 04:41:13;;;;;;;0.60;0.10;;;21.70;86.00;;;;;;4899212;29;20453;-66
2023/08/23 04:43:41;;;;;;;0.60;0.10;;;21.70;87.10;;;;;;4891663;29;20454;-68
2023/08/23 04:46:09;;;;;;;0.60;0.10;;;21.60;88.10;;;;;;4879909;29;21006;-66
2023/08/23 04:48:37;;;;;;;0.60;0.10;;;21.50;89.10;;;;;;4880505;29;20471;-67
2023/08/23 04:51:09;;;;;;;0.70;0.30;;;21.40;91.30;;;;;;4879995;29;20883;-67
2023/08/23 04:53:38;;;;;;;1.33;1.23;;;21.30;92.90;;;;;;4880287;29;20454;-67
2023/08/23 04:56:06;;;;;;;0.60;0.27;;;;;;;;;;4892289;29;20572;-68
2023/08/23 04:58:34;;;;;;;0.70;0.20;;;;;;;;;;4898814;29;20453;-68
2023/08/23 05:01:03;;;;;;;0.60;0.10;;;21.40;94.60;;;;;;4898430;29;20512;-68
2023/08/23 05:03:31;;;;;;;0.70;0.30;;;21.40;94.80;;;;;;4897935;29;20480;-68
2023/08/23 05:06:00;;;;;;;0.60;0.10;;;21.40;95.10;;;;;;4898105;29;20990;-68
2023/08/23 05:08:29;;;;;;;0.60;0.20;;;21.50;96.10;;;;;;4898501;29;20495;-69
2023/08/23 05:10:58;;;;;;;0.70;0.40;;;21.60;96.50;;;;;;4898796;29;20973;-67
2023/08/23 05:13:26;;;;;;;0.60;0.10;;;21.70;96.10;;;;;;4897947;29;20453;-68
2023/08/23 05:15:54;;;;;;;0.60;0.20;;;21.60;94.40;;;;;;4898132;29;20547;-67
2023/08/23 05:18:22;;;;;;;0.60;0.10;;;;;;;;;;4898746;29;20449;-67
2023/08/23 05:20:54;;;;;;;0.60;0.10;;;21.80;94.80;;;;;;4898365;29;20517;-67
2023/08/23 05:23:23;;;;;;;0.60;0.20;;;21.80;93.60;;;;;;4898548;29;20484;-68
2023/08/23 05:25:51;;;;;;;0.60;0.10;;;21.90;94.30;;;;;;4897957;29;20473;-67
2023/08/23 05:28:21;;;;;;;0.60;0.20;;;21.90;94.80;;;;;;4897763;29;20491;-68
2023/08/23 05:30:51;;;;;;;0.60;0.20;;;22.00;93.50;;;;;;4898084;29;20448;-68
2023/08/23 05:33:18;;;;;;;0.60;0.10;;;22.00;91.60;;;;;;4898213;29;20453;-68
2023/08/23 05:35:47;;;;;;;0.60;0.10;;;22.00;92.10;;;;;;4897612;29;20477;-68
2023/08/23 05:38:15;;;;;;;0.60;0.10;;;22.10;92.40;;;;;;4897446;29;20456;-68
2023/08/23 05:40:44;;;;;;;0.60;0.20;;;22.00;91.70;;;;;;4897683;29;21046;-68
2023/08/23 05:43:11;;;;;;;0.60;0.10;;;22.00;92.20;;;;;;4897545;29;20966;-68
2023/08/23 05:45:41;;;;;;;0.60;0.10;;;22.00;92.60;;;;;;4897412;29;20479;-66
2023/08/23 05:48:09;;;;;;;0.60;0.20;;;;;;;;;;4897283;29;21149;-67
2023/08/23 05:50:37;;;;;;;0.60;0.10;;;22.00;92.60;;;;;;4878870;29;20465;-68
2023/08/23 05:53:09;;;;;;;1.07;0.70;;;22.00;92.20;;;;;;4878958;29;20537;-67
2023/08/23 05:55:38;;;;;;;0.60;0.20;;;22.00;91.90;;;;;;4879337;29;20462;-66
2023/08/23 05:58:05;;;;;;;0.70;0.30;;;22.00;92.20;;;;;;4897377;29;20927;-67
2023/08/23 06:00:33;;;;;;;0.60;0.20;;;21.90;92.80;;;;;;4897461;29;20977;-68
2023/08/23 06:03:02;;;;;;;0.60;0.10;;;21.90;92.40;;;;;;4897582;29;20480;-68
2023/08/23 06:05:30;;;;;;;0.60;0.27;;;21.90;93.20;;;;;;4897787;29;20596;-67
2023/08/23 06:07:58;;;;;;;0.60;0.10;;;;;;;;;;4897405;29;20572;-67
2023/08/23 06:10:27;;;;;;;0.60;0.10;;;;;;;;;;4897559;29;20461;-68
2023/08/23 06:12:54;;;;;;;0.60;0.10;;;22.00;93.80;;;;;;4897117;29;20540;-67
2023/08/23 06:15:23;;;;;;;2.00;1.03;;;;;;;;;;4897207;29;20487;-66
2023/08/23 06:17:52;;;;;;;0.60;0.20;;;;;;;;;;4895672;29;20511;-67
2023/08/23 06:20:21;;;;;;;1.10;0.60;;;21.90;94.40;;;;;;4889300;29;20556;-68
2023/08/23 06:22:50;;;;;;;0.60;0.10;;;;;;;;;;4886395;29;20458;-68
2023/08/23 06:25:18;;;;;;;13.13;1.13;;;22.00;94.70;;;;;;4887987;29;21021;-68
2023/08/23 06:27:46;;;;;;;0.60;0.10;;;22.10;94.60;;;;;;4883724;29;20486;-68
2023/08/23 06:30:15;;;;;;;1.17;0.40;;;22.10;93.80;;;;;;4878155;29;20458;-67
2023/08/23 06:32:46;;;;;;;1.37;0.97;;;22.00;93.70;;;;;;4889711;29;20441;-67
2023/08/23 06:35:14;;;;;;;1.10;0.90;;;22.10;93.70;;;;;;4891897;29;20461;-68
2023/08/23 06:37:43;;;;;;;0.70;0.47;;;22.00;93.80;;;;;;4889134;29;21030;-68
2023/08/23 06:40:13;;;;;;;0.60;0.10;;;22.10;94.90;;;;;;4885890;29;20472;-67
2023/08/23 06:42:41;;;;;;;0.60;0.10;;;22.10;95.60;;;;;;4886318;29;20524;-68
2023/08/23 06:45:10;;;;;;;0.60;0.20;;;22.10;95.20;;;;;;4887576;29;20489;-68
2023/08/23 06:47:38;;;;;;;0.60;0.20;;;22.10;95.10;;;;;;4877640;29;20497;-68
2023/08/23 06:50:07;;;;;;;0.70;0.40;;;22.20;93.60;;;;;;4878179;29;20450;-66
2023/08/23 06:52:42;;;;;;;0.60;0.10;;;22.30;94.40;;;;;;4878341;29;20458;-69
2023/08/23 06:55:10;;;;;;;0.70;0.60;;;22.30;94.90;;;;;;4893216;29;20497;-67
2023/08/23 06:57:39;;;;;;;0.70;0.40;;;22.30;94.30;;;;;;4885233;29;20507;-68
2023/08/23 07:00:08;;;;;;;0.60;0.10;;;22.30;92.90;;;;;;4886467;29;20962;-67
2023/08/23 07:02:36;;;;;;;0.80;0.60;;;22.30;92.10;;;;;;4884928;29;20450;-68
2023/08/23 07:05:05;;;;;;;0.70;0.60;;;22.20;91.90;;;;;;4895871;29;20572;-67
2023/08/23 07:07:32;;;;;;;0.60;0.20;;;22.20;92.70;;;;;;4896681;29;20534;-69
2023/08/23 07:10:01;;;;;;;0.77;0.60;;;22.20;92.40;;;;;;4898018;29;20455;-68
2023/08/23 07:12:44;;;;;;;0.60;0.30;;;;;;;;;;4896738;29;20477;-67
2023/08/23 07:15:13;;;;;;;0.60;0.10;;;;;;;;;;4896019;29;20511;-67
2023/08/23 07:17:40;;;;;;;0.73;0.30;;;22.40;93.40;;;;;;4895080;29;20892;-67
2023/08/23 07:20:12;;;;;;;1.20;1.10;;;22.40;99.00;;;;;;4885786;29;20464;-67
2023/08/23 07:22:40;;;;;;;0.60;0.10;;;;;;;;;;4893193;29;20867;-66
2023/08/23 07:25:10;;;;;;;0.77;0.63;;;22.50;94.80;;;;;;4886715;29;20500;-67
2023/08/23 07:27:38;;;;;;;1.80;1.13;;;22.50;92.70;;;;;;4888526;29;20454;-66
2023/08/23 07:30:07;;;;;;;0.60;0.20;;;22.50;93.50;;;;;;4885530;29;20445;-67
2023/08/23 07:32:35;;;;;;;0.60;0.20;;;;;;;;;;4886854;29;20445;-68
2023/08/23 07:35:04;;;;;;;0.70;0.50;;;22.50;92.60;;;;;;4887437;29;20461;-68
2023/08/23 07:37:32;;;;;;;1.63;1.53;;;22.50;92.60;;;;;;4886383;29;20947;-68
2023/08/23 07:39:59;;;;;;;0.80;0.33;;;22.50;92.10;;;;;;4890070;29;20579;-67
2023/08/23 07:42:29;;;;;;;0.70;0.30;;;22.50;93.20;;;;;;4886032;29;20478;-67
2023/08/23 07:44:57;;;;;;;0.60;0.10;;;;;;;;;;4891920;29;20548;-67
2023/08/23 07:47:25;;;;;;;0.90;0.30;;;22.60;93.20;;;;;;4889579;29;20936;-67
2023/08/23 07:49:53;;;;;;;0.60;0.10;;;;;;;;;;4890086;29;20485;-67
2023/08/23 07:52:21;;;;;;;0.60;0.10;;;22.80;93.90;;;;;;4896982;29;20509;-67
2023/08/23 07:54:49;;;;;;;0.60;0.10;;;22.90;93.50;;;;;;4889246;29;20918;-68
2023/08/23 07:57:17;;;;;;;0.60;0.20;;;23.00;92.60;;;;;;4890147;29;20969;-68
2023/08/23 07:59:46;;;;;;;0.60;0.10;;;23.00;91.30;;;;;;4891337;29;20452;-67
2023/08/23 08:02:14;;;;;;;0.60;0.30;;;;;;;;;;4889915;29;20453;-66
2023/08/23 08:04:43;;;;;;;1.23;0.30;;;23.00;90.60;;;;;;4891233;29;20446;-66
2023/08/23 08:07:11;;;;;;;0.70;0.20;;;;;;;;;;4890566;29;20448;-67
2023/08/23 08:09:44;;;;;;;0.60;0.17;;;23.00;90.70;;;;;;4889886;29;20473;-67
2023/08/23 08:12:12;;;;;;;0.60;0.20;;;;;;;;;;4890094;29;20450;-67
2023/08/23 08:14:40;;;;;;;0.90;0.20;;;;;;;;;;4895342;29;20467;-68
2023/08/23 08:17:09;;;;;;;0.77;0.53;;;23.20;90.70;;;;;;4891424;29;20443;-68
2023/08/23 08:19:38;;;;;;;20.47;8.77;;;;;;;;;;4889152;29;20505;-68
2023/08/23 08:22:05;;;;;;;0.60;0.10;;;23.50;91.70;;;;;;4890931;29;20572;-68
2023/08/23 08:24:33;;;;;;;1.40;0.30;;;23.60;92.00;;;;;;4889406;29;20493;-68
2023/08/23 08:27:02;;;;;;;0.70;0.10;;;;;;;;;;4890471;29;20811;-67
2023/08/23 08:29:30;;;;;;;0.70;0.10;;;23.70;91.10;;;;;;4890336;29;20486;-67
2023/08/23 08:31:58;;;;;;;0.63;0.20;;;;;;;;;;4888662;29;20449;-67
2023/08/23 08:34:27;;;;;;;0.70;0.30;;;23.90;85.00;;;;;;4891997;29;20454;-68
2023/08/23 08:36:56;;;;;;;0.70;0.10;;;;;;;;;;4894837;29;20947;-68
2023/08/23 08:39:24;;;;;;;0.70;0.20;;;;;;;;;;4888467;29;20970;-67
2023/08/23 08:41:52;;;;;;;0.70;0.20;;;23.90;81.80;;;;;;4888180;29;20446;-67
2023/08/23 08:44:20;;;;;;;0.70;0.20;;;23.90;78.90;;;;;;4888729;29;20542;-67
2023/08/23 08:46:48;;;;;;;0.60;0.10;;;;;;;;;;4890076;29;20482;-67
2023/08/23 08:49:16;;;;;;;0.70;0.10;;;;;;;;;;4887987;29;20804;-67
2023/08/23 08:51:48;;;;;;;0.70;0.10;;;23.90;73.40;;;;;;4890845;29;20450;-67
2023/08/23 08:54:17;;;;;;;0.70;0.20;;;24.00;74.50;;;;;;4889811;29;20469;-67
2023/08/23 08:56:48;;;;;;;0.70;0.10;;;24.00;73.90;;;;;;4891607;29;20508;-67
2023/08/23 08:59:17;;;;;;;0.70;0.10;;;24.10;69.20;;;;;;4891321;29;20453;-67
2023/08/23 09:01:46;;;;;;;0.70;0.20;;;24.10;68.20;;;;;;4888206;29;20472;-67
2023/08/23 09:04:15;;;;;;;0.80;0.40;;;24.10;65.00;;;;;;4890670;29;20454;-66
2023/08/23 09:06:46;;;;;;;0.70;0.20;;;24.10;64.20;;;;;;4888079;29;20465;-67
2023/08/23 09:09:14;;;;;;;1.23;1.13;;;24.20;60.60;;;;;;4887772;29;20493;-65
2023/08/23 09:11:42;;;;;;;0.70;0.10;;;;;;;;;;4887363;29;20538;-66
2023/08/23 09:14:14;;;;;;;0.70;0.20;;;24.30;60.10;;;;;;4888504;29;20452;-67
2023/08/23 09:16:43;;;;;;;0.70;0.20;;;24.30;60.60;;;;;;4889895;29;20579;-68
2023/08/23 09:19:11;;;;;;;0.70;0.10;;;;;;;;;;4891220;29;20460;-67
2023/08/23 09:21:44;;;;;;;0.70;0.20;;;24.40;62.80;;;;;;4889219;29;20450;-66
2023/08/23 09:24:13;;;;;;;0.80;0.60;;;24.50;65.60;;;;;;4888223;29;20545;-67
2023/08/23 09:26:44;;;;;;;0.70;0.10;;;;;;;;;;4887467;29;20466;-68
2023/08/23 09:29:13;;;;;;;0.70;0.23;;;24.60;64.90;;;;;;4888604;29;20615;-66
2023/08/23 09:31:41;;;;;;;0.70;0.20;;;;;;;;;;4888993;29;20476;-68
2023/08/23 09:34:13;;;;;;;0.70;0.10;;;24.70;65.50;;;;;;4887911;29;20533;-67
2023/08/23 09:36:41;;;;;;;0.70;0.10;;;24.70;61.50;;;;;;4887771;29;20505;-69
2023/08/23 09:39:10;;;;;;;0.70;0.10;;;;;;;;;;4889233;29;20444;-68
2023/08/23 09:41:40;;;;;;;0.70;0.10;;;24.90;61.10;;;;;;4892048;29;20633;-69
2023/08/23 09:44:26;;;;;;;0.70;0.10;;;24.90;58.50;;;;;;4888091;29;20442;-69
2023/08/23 09:46:57;;;;;;;0.70;0.20;;;25.10;61.90;;;;;;4888492;29;20445;-69
2023/08/23 09:49:29;;;;;;;0.70;0.20;;;25.10;59.50;;;;;;4888632;29;20478;-68
2023/08/23 09:51:57;;;;;;;0.70;0.20;;;25.20;59.80;;;;;;4890358;29;20645;-69
2023/08/23 09:54:45;;;;;;;0.70;0.20;;;25.30;59.00;;;;;;4888567;29;20450;-69
2023/08/23 09:57:32;;;;;;;0.70;0.10;;;25.40;60.50;;;;;;4889896;29;20884;-69
2023/08/23 10:00:01;;;;;;;0.70;0.20;;;;;;;;;;4888885;29;20469;-69
2023/08/23 10:02:30;;;;;;;0.70;0.10;;;25.50;58.00;;;;;;4891520;29;20450;-69
2023/08/23 10:05:00;;;;;;;0.70;0.10;;;25.50;55.60;;;;;;4887260;29;20473;-68
2023/08/23 10:07:32;;;;;;;0.90;0.70;;;25.60;54.60;;;;;;4884350;29;20501;-69
2023/08/23 10:10:00;;;;;;;0.70;0.20;;;25.50;51.40;;;;;;4897796;29;20935;-69
2023/08/23 10:12:30;;;;;;;0.70;0.20;;;25.60;52.40;;;;;;4887816;29;20449;-69
2023/08/23 10:15:01;;;;;;;6.07;0.80;;;25.70;51.40;;;;;;4900648;23;20937;-84
2023/08/23 10:17:30;;;;;;;0.70;0.20;;;25.80;50.90;;;;;;4932431;23;20497;-75
2023/08/23 10:19:58;;;;;;;0.70;0.10;;;25.80;59.40;;;;;;4893762;29;20576;-75
2023/08/23 10:22:27;;;;;;;0.70;0.20;;;;;;;;;;4897293;29;20795;-76
2023/08/23 10:24:55;;;;;;;0.70;0.20;;;26.00;42.90;;;;;;4897246;29;20536;-76
2023/08/23 10:27:24;;;;;;;0.70;0.20;;;26.00;43.40;;;;;;4896939;29;20807;-76
2023/08/23 10:29:53;;;;;;;0.70;0.10;;;26.00;54.70;;;;;;4894455;29;20442;-76
2023/08/23 10:32:37;;;;;;;5.13;3.10;;;26.00;40.90;;;;;;4895334;29;20456;-77
2023/08/23 10:35:20;;;;;;;0.70;0.10;;;25.90;40.60;;;;;;4894417;29;20451;-76
2023/08/23 10:37:48;;;;;;;0.70;0.10;;;26.00;42.50;;;;;;4887455;29;20494;-77
2023/08/23 10:40:19;;;;;;;0.70;0.10;;;26.10;44.40;;;;;;4896790;29;20568;-77
2023/08/23 10:42:47;;;;;;;0.70;0.10;;;;;;;;;;4898551;29;20469;-75
2023/08/23 10:45:16;;;;;;;0.70;0.10;;;26.30;34.50;;;;;;4902274;29;20516;-76
2023/08/23 10:47:47;;;;;;;0.70;0.20;;;26.40;29.70;;;;;;4907771;29;20462;-76
2023/08/23 10:50:16;;;;;;;0.70;0.20;;;26.40;39.60;;;;;;4905868;29;20447;-75
2023/08/23 10:52:44;;;;;;;0.70;0.13;;;26.40;21.60;;;;;;4899296;29;20459;-76
2023/08/23 10:55:12;;;;;;;0.70;0.10;;;26.50;18.90;;;;;;4897004;29;20560;-76
2023/08/23 10:57:39;;;;;;;0.70;0.10;;;26.50;27.30;;;;;;4897226;29;20536;-75
2023/08/23 11:00:08;;;;;;;0.70;0.20;;;26.50;27.60;;;;;;4897567;29;20489;-75
2023/08/23 11:02:36;;;;;;;0.70;0.20;;;26.60;17.90;;;;;;4896780;29;20558;-75
2023/08/23 11:05:07;;;;;;;0.80;0.20;;;26.70;14.50;;;;;;4896533;29;20457;-75
2023/08/23 11:07:35;;;;;;;0.70;0.20;;;26.70;16.60;;;;;;4894625;29;20530;-75
2023/08/23 11:10:04;;;;;;;0.70;0.20;;;26.80;15.40;;;;;;4896238;29;20470;-75
2023/08/23 11:12:32;;;;;;;0.70;0.10;;;;;;;;;;4896416;29;20944;-75
2023/08/23 11:15:00;;;;;;;0.80;0.23;;;26.90;14.70;;;;;;4896820;29;20446;-75
2023/08/23 11:17:28;;;;;;;0.70;0.10;;;26.90;23.50;;;;;;4895884;29;20517;-75
2023/08/23 11:19:56;;;;;;;0.70;0.20;;;;;;;;;;4894804;29;20523;-75
2023/08/23 11:22:26;;;;;;;0.70;0.20;;;27.00;15.60;;;;;;4895507;29;20481;-74
2023/08/23 11:24:54;;;;;;;1.07;0.17;;;;;;;;;;4895076;29;20459;-76
2023/08/23 11:27:22;;;;;;;0.70;0.10;;;27.10;19.00;;;;;;4896846;29;20451;-75
2023/08/23 11:29:50;;;;;;;0.70;0.20;;;;;;;;;;4895569;29;20455;-75
2023/08/23 11:32:18;;;;;;;0.70;0.10;;;27.30;19.80;;;;;;4896516;29;20894;-75
2023/08/23 11:34:47;;;;;;;0.70;0.20;;;27.40;27.20;;;;;;4895754;29;20914;-74
2023/08/23 11:37:15;;;;;;;0.70;0.20;;;27.50;20.30;;;;;;4896553;29;20531;-74
2023/08/23 11:39:55;;;;;;;0.70;0.10;;;27.50;20.80;;;;;;4896371;29;20460;-74
2023/08/23 11:42:24;;;;;;;0.70;0.20;;;27.50;20.20;;;;;;4896590;29;20523;-75
2023/08/23 11:44:54;;;;;;;0.70;0.20;;;27.60;20.40;;;;;;4895673;29;20882;-73
2023/08/23 11:47:25;;;;;;;0.70;0.10;;;27.60;17.90;;;;;;4896890;29;20485;-74
2023/08/23 11:49:53;;;;;;;0.70;0.20;;;27.60;26.30;;;;;;4896629;29;20815;-74
2023/08/23 11:52:21;;;;;;;0.70;0.17;;;;;;;;;;4896697;29;20451;-73
2023/08/23 11:54:52;;;;;;;0.70;0.30;;;27.60;17.40;;;;;;4897515;29;20502;-73
2023/08/23 11:57:21;;;;;;;0.70;0.20;;;27.60;16.50;;;;;;4897899;29;20451;-74
2023/08/23 11:59:49;;;;;;;0.70;0.20;;;27.70;17.90;;;;;;4896124;29;20463;-75
2023/08/23 12:02:17;;;;;;;0.70;0.20;;;27.70;26.50;;;;;;4895975;29;20524;-74
2023/08/23 12:04:45;;;;;;;0.70;0.20;;;27.90;19.20;;;;;;4896006;29;20490;-74
2023/08/23 12:07:13;;;;;;;1.00;0.53;;;27.90;19.30;;;;;;4895571;29;20482;-74
2023/08/23 12:09:41;;;;;;;1.13;1.03;;;27.80;15.00;;;;;;4877596;29;20448;-74
2023/08/23 12:12:11;;;;;;;0.70;0.20;;;27.80;17.00;;;;;;4877254;29;20453;-74
2023/08/23 12:14:39;;;;;;;0.70;0.20;;;28.00;17.10;;;;;;4877199;29;20465;-73
2023/08/23 12:17:07;;;;;;;0.70;0.20;;;28.10;16.00;;;;;;4877379;29;20511;-74
2023/08/23 12:19:36;;;;;;;0.70;0.20;;;28.20;15.40;;;;;;4888416;29;20816;-74
2023/08/23 12:22:06;;;;;;;0.70;0.20;;;28.20;24.20;;;;;;4896095;29;20515;-73
2023/08/23 12:24:34;;;;;;;0.70;0.10;;;;;;;;;;4895612;29;20457;-75
2023/08/23 12:27:02;;;;;;;0.70;0.10;;;28.30;9.50;;;;;;4895323;29;20577;-75
2023/08/23 12:29:32;;;;;;;0.70;0.10;;;28.40;10.50;;;;;;4897185;29;20479;-75
2023/08/23 12:32:00;;;;;;;0.70;0.10;;;28.30;9.40;;;;;;4899337;29;20543;-75
2023/08/23 12:34:29;;;;;;;0.70;0.20;;;28.40;10.60;;;;;;4899222;29;20535;-73
2023/08/23 12:36:56;;;;;;;0.80;0.43;;;28.40;9.80;;;;;;4899223;29;20472;-73
2023/08/23 12:39:24;;;;;;;0.70;0.10;;;28.40;17.90;;;;;;4898774;29;20463;-73
2023/08/23 12:41:52;;;;;;;0.70;0.10;;;28.50;13.10;;;;;;4898749;29;20483;-73
2023/08/23 12:44:20;;;;;;;0.80;0.30;;;28.50;4.10;;;;;;4899028;29;20449;-75
2023/08/23 12:46:49;;;;;;;1.37;1.10;;;28.40;1.00;;;;;;4899090;29;20480;-72
2023/08/23 12:49:18;;;;;;;0.70;0.30;;;;;;;;;;4900153;29;20575;-74
2023/08/23 12:51:46;;;;;;;0.70;0.17;;;28.50;4.10;;;;;;4898745;29;20950;-73
2023/08/23 12:54:14;;;;;;;0.70;0.20;;;28.50;5.20;;;;;;4898782;29;20480;-74
2023/08/23 12:56:42;;;;;;;0.70;0.10;;;28.60;7.20;;;;;;4899445;29;20891;-73
2023/08/23 12:59:10;;;;;;;0.70;0.30;;;28.70;15.50;;;;;;4901704;29;20531;-74
2023/08/23 13:01:38;;;;;;;0.80;0.30;;;28.70;7.90;;;;;;4901116;29;20581;-73
2023/08/23 13:04:07;;;;;;;0.70;0.10;;;28.80;17.20;;;;;;4899558;29;20467;-73
2023/08/23 13:06:35;;;;;;;0.70;0.10;;;28.80;8.10;;;;;;4898445;29;21091;-74
2023/08/23 13:09:05;;;;;;;0.70;0.20;;;28.80;5.40;;;;;;4898568;29;20445;-74
2023/08/23 13:11:33;;;;;;;0.70;0.17;;;28.80;5.30;;;;;;4898685;29;20481;-74
2023/08/23 13:14:00;;;;;;;0.70;0.20;;;28.80;5.40;;;;;;4898464;29;20487;-75
2023/08/23 13:16:28;;;;;;;0.70;0.20;;;28.90;5.60;;;;;;4898095;29;20974;-73
2023/08/23 13:18:56;;;;;;;0.90;0.30;;;28.90;14.60;;;;;;4898012;29;20569;-73
2023/08/23 13:21:25;;;;;;;0.70;0.20;;;29.00;5.40;;;;;;4898571;29;20493;-74
2023/08/23 13:23:53;;;;;;;0.70;0.20;;;29.00;4.00;;;;;;4897902;29;21024;-73
2023/08/23 13:26:21;;;;;;;0.70;0.20;;;29.10;4.00;;;;;;4897972;29;20476;-72
2023/08/23 13:28:49;;;;;;;0.70;0.20;;;29.10;1.60;;;;;;4881481;29;20882;-74
2023/08/23 13:31:17;;;;;;;0.70;0.20;;;29.00;2.00;;;;;;4898257;29;20445;-73
2023/08/23 13:33:46;;;;;;;0.70;0.20;;;29.00;3.10;;;;;;4897966;29;20457;-73
2023/08/23 13:36:15;;;;;;;0.70;0.10;;;29.00;3.30;;;;;;4897946;29;20488;-73
2023/08/23 13:38:44;;;;;;;0.70;0.20;;;29.10;13.40;;;;;;4898527;29;20521;-73
2023/08/23 13:41:12;;;;;;;0.70;0.20;;;29.00;3.10;;;;;;4891509;29;20990;-73
2023/08/23 13:43:40;;;;;;;0.70;0.20;;;29.00;2.60;;;;;;4879414;29;20567;-73
2023/08/23 13:46:08;;;;;;;0.70;0.10;;;28.90;1.90;;;;;;4878646;29;20477;-74
2023/08/23 13:48:35;;;;;;;0.70;0.10;;;28.90;1.00;;;;;;4879157;29;20509;-74
2023/08/23 13:51:04;;;;;;;0.70;0.10;;;28.90;1.00;;;;;;4893062;29;20953;-74
2023/08/23 13:53:32;;;;;;;0.70;0.10;;;28.80;1.00;;;;;;4892323;29;20818;-74
2023/08/23 13:56:01;;;;;;;0.70;0.10;;;28.90;1.00;;;;;;4878672;29;21007;-74
2023/08/23 13:58:29;;;;;;;0.70;0.20;;;28.90;9.50;;;;;;4879241;29;20475;-74
2023/08/23 14:00:58;;;;;;;0.70;0.10;;;28.90;7.30;;;;;;4884142;29;20550;-74
2023/08/23 14:03:26;;;;;;;0.80;0.50;;;28.90;1.00;;;;;;4887209;29;20493;-74
2023/08/23 14:05:58;;;;;;;1.00;0.70;;;28.90;1.00;;;;;;4894826;29;20852;-75
2023/08/23 14:08:25;;;;;;;0.70;0.10;;;28.90;1.00;;;;;;4900277;29;20531;-75
2023/08/23 14:10:53;;;;;;;1.70;1.40;;;28.80;1.00;;;;;;4899076;29;20460;-74
2023/08/23 14:13:23;;;;;;;0.70;0.10;;;28.80;1.00;;;;;;4898641;29;20459;-74
2023/08/23 14:15:53;;;;;;;0.70;0.10;;;28.80;1.00;;;;;;4898764;29;20518;-74
2023/08/23 14:18:21;;;;;;;0.70;0.10;;;28.80;1.00;;;;;;4901910;29;20524;-73
2023/08/23 14:20:49;;;;;;;0.70;0.20;;;28.90;1.00;;;;;;4901794;29;20536;-74
2023/08/23 14:23:16;;;;;;;0.70;0.10;;;29.00;1.00;;;;;;4900493;29;20538;-74
2023/08/23 14:25:44;;;;;;;0.70;0.20;;;29.10;1.00;;;;;;4901622;29;21013;-74
2023/08/23 14:28:12;;;;;;;0.70;0.10;;;29.10;1.00;;;;;;4899728;29;20457;-73
2023/08/23 14:30:44;;;;;;;0.70;0.10;;;29.20;1.00;;;;;;4898105;29;20993;-74
2023/08/23 14:33:12;;;;;;;0.70;0.20;;;29.30;1.00;;;;;;4897817;29;20531;-74
2023/08/23 14:35:40;;;;;;;0.70;0.10;;;29.40;1.00;;;;;;4896756;29;20509;-74
2023/08/23 14:38:08;;;;;;;0.70;0.10;;;29.40;1.00;;;;;;4897258;29;20555;-74
2023/08/23 14:40:36;;;;;;;0.70;0.20;;;29.40;1.00;;;;;;4897403;29;20882;-74
2023/08/23 14:43:04;;;;;;;0.70;0.20;;;29.40;1.00;;;;;;4897110;29;20491;-74
2023/08/23 14:45:33;;;;;;;0.70;0.20;;;29.50;1.00;;;;;;4896399;29;20469;-74
2023/08/23 14:48:02;;;;;;;1.20;0.20;;;29.50;1.00;;;;;;4896827;29;20553;-74
2023/08/23 14:50:32;;;;;;;0.70;0.30;;;29.60;1.00;;;;;;4896718;29;20531;-74
2023/08/23 14:53:00;;;;;;;0.70;0.17;;;29.70;1.00;;;;;;4896509;29;20453;-74
2023/08/23 14:55:29;;;;;;;0.70;0.20;;;29.70;1.00;;;;;;4896943;29;21001;-74
2023/08/23 14:57:57;;;;;;;0.70;0.17;;;29.70;1.00;;;;;;4898308;29;20462;-74
2023/08/23 15:00:29;;;;;;;0.70;0.17;;;29.80;1.00;;;;;;4898438;29;20448;-74
2023/08/23 15:02:57;;;;;;;0.70;0.20;;;30.00;1.00;;;;;;4878388;29;20485;-73
2023/08/23 15:05:26;;;;;;;0.70;0.20;;;30.00;1.00;;;;;;4878614;29;21005;-74
2023/08/23 15:07:54;;;;;;;0.70;0.20;;;30.00;1.00;;;;;;4877819;29;20464;-73
2023/08/23 15:10:23;;;;;;;0.70;0.20;;;30.10;1.00;;;;;;4878098;29;20460;-73
2023/08/23 15:12:51;;;;;;;0.70;0.20;;;30.10;1.00;;;;;;4883029;29;20908;-74
2023/08/23 15:15:19;;;;;;;0.70;0.20;;;30.20;1.00;;;;;;4897139;29;20469;-74
2023/08/23 15:17:47;;;;;;;0.70;0.10;;;30.20;1.00;;;;;;4897291;29;20551;-72
2023/08/23 15:20:16;;;;;;;0.70;0.20;;;30.30;1.00;;;;;;4897167;29;20872;-73
2023/08/23 15:22:45;;;;;;;0.70;0.20;;;30.30;1.00;;;;;;4896300;29;20490;-75
2023/08/23 15:25:13;;;;;;;0.70;0.20;;;;;;;;;;4896040;29;20520;-74
2023/08/23 15:27:41;;;;;;;0.70;0.20;;;30.40;1.00;;;;;;4896287;29;20507;-75
2023/08/23 15:30:12;;;;;;;0.70;0.10;;;30.50;1.00;;;;;;4896284;29;20547;-75
2023/08/23 15:32:41;;;;;;;0.70;0.20;;;;;;;;;;4896520;29;20445;-74
2023/08/23 15:35:10;;;;;;;0.70;0.20;;;30.60;1.00;;;;;;4896620;29;20496;-74
2023/08/23 15:37:38;;;;;;;0.70;0.10;;;30.70;1.00;;;;;;4895966;29;20453;-75
2023/08/23 15:40:10;;;;;;;0.70;0.10;;;30.60;1.00;;;;;;4896212;29;20456;-75
2023/08/23 15:42:38;;;;;;;0.70;0.20;;;30.70;1.00;;;;;;4896251;29;20489;-76
2023/08/23 15:45:07;;;;;;;1.57;0.27;;;30.90;1.00;;;;;;4896483;29;20452;-75
2023/08/23 15:47:35;;;;;;;1.10;0.43;;;30.90;1.00;;;;;;4897912;29;20515;-76
2023/08/23 15:50:04;;;;;;;0.70;0.20;;;30.80;1.00;;;;;;4897760;29;20557;-76
2023/08/23 15:52:32;;;;;;;0.70;0.20;;;30.90;1.00;;;;;;4897934;29;20451;-76
2023/08/23 15:55:00;;;;;;;0.70;0.20;;;30.90;1.00;;;;;;4898517;29;20481;-75
2023/08/23 15:57:29;;;;;;;0.70;0.10;;;31.00;1.00;;;;;;4897157;29;20453;-75
2023/08/23 15:59:57;;;;;;;0.70;0.20;;;31.00;1.00;;;;;;4897031;29;20449;-75
2023/08/23 16:02:25;;;;;;;0.70;0.20;;;31.00;1.00;;;;;;4896777;29;20457;-76
2023/08/23 16:04:53;;;;;;;0.70;0.20;;;31.20;1.00;;;;;;4898341;29;20449;-75
2023/08/23 16:07:21;;;;;;;0.70;0.10;;;31.10;1.00;;;;;;4900347;29;20465;-76
2023/08/23 16:09:49;;;;;;;0.70;0.20;;;31.20;1.00;;;;;;4909766;29;21021;-75
2023/08/23 16:12:17;;;;;;;0.70;0.30;;;31.30;1.00;;;;;;4905055;29;20452;-75
2023/08/23 16:14:46;;;;;;;0.70;0.20;;;31.50;1.00;;;;;;4903268;29;20746;-76
2023/08/23 16:17:14;;;;;;;0.70;0.30;;;31.50;1.00;;;;;;4899855;29;20841;-77
2023/08/23 16:19:42;;;;;;;0.70;0.20;;;31.40;1.00;;;;;;4899889;29;20457;-75
2023/08/23 16:22:10;;;;;;;0.70;0.20;;;31.40;1.00;;;;;;4899898;29;21051;-76
2023/08/23 16:24:38;;;;;;;0.70;0.20;;;31.50;1.00;;;;;;4902698;29;20564;-75
2023/08/23 16:27:06;;;;;;;0.70;0.20;;;31.60;1.00;;;;;;4904639;29;20540;-75
2023/08/23 16:29:34;;;;;;;0.70;0.10;;;31.80;1.00;;;;;;4904800;29;21006;-74
2023/08/23 16:32:04;;;;;;;0.70;0.17;;;;;;;;;;4903498;29;20449;-75
2023/08/23 16:34:32;;;;;;;1.70;1.60;;;;;;;;;;4900072;29;20441;-75
2023/08/23 16:37:00;;;;;;;0.70;0.20;;;32.00;1.00;;;;;;4899617;29;21027;-75
2023/08/23 16:39:29;;;;;;;0.70;0.10;;;32.10;1.00;;;;;;4880783;29;20525;-75
2023/08/23 16:41:57;;;;;;;0.70;0.20;;;32.20;1.00;;;;;;4884890;29;20449;-75
2023/08/23 16:44:25;;;;;;;0.70;0.20;;;32.20;1.00;;;;;;4899127;29;20572;-75
2023/08/23 16:46:53;;;;;;;0.70;0.20;;;32.40;1.00;;;;;;4898971;29;20497;-75
2023/08/23 16:49:22;;;;;;;0.70;0.20;;;32.40;1.00;;;;;;4899255;29;20548;-75
2023/08/23 16:51:52;;;;;;;0.70;0.20;;;32.50;1.00;;;;;;4897112;29;20524;-76
2023/08/23 16:54:20;;;;;;;0.70;0.20;;;32.60;1.00;;;;;;4892369;29;20477;-74
2023/08/23 16:56:48;;;;;;;0.70;0.20;;;32.50;1.00;;;;;;4892667;29;20504;-75
2023/08/23 16:59:15;;;;;;;0.70;0.13;;;32.40;1.00;;;;;;4896111;29;20446;-75
2023/08/23 17:01:43;;;;;;;0.70;0.20;;;32.50;1.00;;;;;;4898256;29;20449;-75
2023/08/23 17:04:11;;;;;;;0.70;0.20;;;32.40;1.00;;;;;;4897584;29;20483;-77
2023/08/23 17:06:41;;;;;;;0.70;0.20;;;32.40;1.00;;;;;;4898010;29;21078;-74
2023/08/23 17:09:09;;;;;;;0.70;0.20;;;32.40;1.00;;;;;;4899342;29;20445;-75
2023/08/23 17:11:38;;;;;;;0.70;0.20;;;32.40;1.00;;;;;;4900516;29;20453;-76
2023/08/23 17:14:06;;;;;;;0.70;0.20;;;32.50;1.00;;;;;;4899264;29;20524;-75